FVML weather

Mlibizi Airstrip
Mlibizi, Matabeleland North Province, Zimbabwe

Public forecast

Using degrees Celsius for public forecast. Weather courtesy of forecast.io.

METAR (pilot weather report)

Report is more than 2 hours old.

Closest report is Hwange National Park Airport, 40.6 nm (75.2 km) S. Retrieved 2019/08/26 06:00 UTC (2 hours ago):

FVWN 260600Z 00000KT CAVOK 16/04 Q1025

TAF (pilot weather forecast)

Forecast is more than 12 hours old.

Closest forecast is Hwange National Park Airport, 40.6 nm (75.2 km) S. Retrieved 2014/01/24 05:00 UTC (6 years ago):

TAF FVWN 240400Z 2405/2418 VRB03KT CAVOK BECMG 2408/2410 9999 SCT030TCU FEW025CB PROB30 TEMPO 2410/2414 -TSRA